sensor_id;sensor_type;location;lat;lon;timestamp;temperature;humidity
1107;DHT22;540;49.448;8.612;2022-09-16T00:00:56;17.60;92.10
1107;DHT22;540;49.448;8.612;2022-09-16T00:03:25;17.50;92.70
1107;DHT22;540;49.448;8.612;2022-09-16T00:05:53;17.80;92.90
1107;DHT22;540;49.448;8.612;2022-09-16T00:08:22;17.30;93.60
1107;DHT22;540;49.448;8.612;2022-09-16T00:10:50;17.50;93.60
1107;DHT22;540;49.448;8.612;2022-09-16T00:13:18;17.50;94.00
1107;DHT22;540;49.448;8.612;2022-09-16T00:15:48;17.40;93.70
1107;DHT22;540;49.448;8.612;2022-09-16T00:18:17;17.40;93.80
1107;DHT22;540;49.448;8.612;2022-09-16T00:20:47;17.50;94.80
1107;DHT22;540;49.448;8.612;2022-09-16T00:23:15;17.20;95.20
1107;DHT22;540;49.448;8.612;2022-09-16T00:25:49;17.20;94.90
1107;DHT22;540;49.448;8.612;2022-09-16T00:28:18;17.40;95.00
1107;DHT22;540;49.448;8.612;2022-09-16T00:30:47;17.10;94.70
1107;DHT22;540;49.448;8.612;2022-09-16T00:33:16;17.50;95.10
1107;DHT22;540;49.448;8.612;2022-09-16T00:35:44;17.30;94.80
1107;DHT22;540;49.448;8.612;2022-09-16T00:38:12;17.20;95.00
1107;DHT22;540;49.448;8.612;2022-09-16T00:40:47;17.10;96.30
1107;DHT22;540;49.448;8.612;2022-09-16T00:43:16;17.20;97.00
1107;DHT22;540;49.448;8.612;2022-09-16T00:45:48;17.40;97.50
1107;DHT22;540;49.448;8.612;2022-09-16T00:48:23;17.20;96.80
1107;DHT22;540;49.448;8.612;2022-09-16T00:50:56;17.10;97.10
1107;DHT22;540;49.448;8.612;2022-09-16T00:53:27;17.40;96.90
1107;DHT22;540;49.448;8.612;2022-09-16T00:56:00;17.20;96.50
1107;DHT22;540;49.448;8.612;2022-09-16T00:58:33;17.20;96.50
1107;DHT22;540;49.448;8.612;2022-09-16T01:01:04;17.00;96.50
1107;DHT22;540;49.448;8.612;2022-09-16T01:03:38;17.20;96.30
1107;DHT22;540;49.448;8.612;2022-09-16T01:06:08;17.40;96.40
1107;DHT22;540;49.448;8.612;2022-09-16T01:08:39;17.20;96.80
1107;DHT22;540;49.448;8.612;2022-09-16T01:11:10;17.10;96.30
1107;DHT22;540;49.448;8.612;2022-09-16T01:13:38;16.80;96.30
1107;DHT22;540;49.448;8.612;2022-09-16T01:16:10;17.30;96.80
1107;DHT22;540;49.448;8.612;2022-09-16T01:18:44;17.40;96.50
1107;DHT22;540;49.448;8.612;2022-09-16T01:21:24;17.10;97.00
1107;DHT22;540;49.448;8.612;2022-09-16T01:24:23;17.00;98.20
1107;DHT22;540;49.448;8.612;2022-09-16T01:27:26;16.70;99.20
1107;DHT22;540;49.448;8.612;2022-09-16T01:32:57;16.90;99.90
1107;DHT22;540;49.448;8.612;2022-09-16T01:35:35;16.80;99.90
1107;DHT22;540;49.448;8.612;2022-09-16T01:38:11;17.10;99.90
1107;DHT22;540;49.448;8.612;2022-09-16T01:40:48;17.00;99.90
1107;DHT22;540;49.448;8.612;2022-09-16T01:43:22;16.80;99.90
1107;DHT22;540;49.448;8.612;2022-09-16T01:45:54;16.90;99.90
1107;DHT22;540;49.448;8.612;2022-09-16T01:48:28;16.80;99.90
1107;DHT22;540;49.448;8.612;2022-09-16T01:51:02;17.10;99.90
1107;DHT22;540;49.448;8.612;2022-09-16T01:53:35;17.20;99.90
1107;DHT22;540;49.448;8.612;2022-09-16T01:56:08;17.20;99.90
1107;DHT22;540;49.448;8.612;2022-09-16T01:58:42;17.00;99.90
1107;DHT22;540;49.448;8.612;2022-09-16T02:01:17;17.30;99.90
1107;DHT22;540;49.448;8.612;2022-09-16T02:03:49;17.30;99.90
1107;DHT22;540;49.448;8.612;2022-09-16T02:06:21;17.00;99.90
1107;DHT22;540;49.448;8.612;2022-09-16T02:08:52;17.30;99.90
1107;DHT22;540;49.448;8.612;2022-09-16T02:11:23;16.90;99.90
1107;DHT22;540;49.448;8.612;2022-09-16T02:13:54;16.90;99.90
1107;DHT22;540;49.448;8.612;2022-09-16T02:16:28;16.80;99.90
1107;DHT22;540;49.448;8.612;2022-09-16T02:19:01;16.80;99.90
1107;DHT22;540;49.448;8.612;2022-09-16T02:21:33;16.40;99.90
1107;DHT22;540;49.448;8.612;2022-09-16T02:24:07;16.50;99.90
1107;DHT22;540;49.448;8.612;2022-09-16T02:26:38;16.20;99.90
1107;DHT22;540;49.448;8.612;2022-09-16T02:29:09;16.60;99.90
1107;DHT22;540;49.448;8.612;2022-09-16T02:31:41;16.50;99.90
1107;DHT22;540;49.448;8.612;2022-09-16T02:34:14;16.50;99.90
1107;DHT22;540;49.448;8.612;2022-09-16T02:36:46;16.80;99.90
1107;DHT22;540;49.448;8.612;2022-09-16T02:39:23;16.60;99.90
1107;DHT22;540;49.448;8.612;2022-09-16T02:41:54;16.70;99.90
1107;DHT22;540;49.448;8.612;2022-09-16T02:44:24;16.70;99.90
1107;DHT22;540;49.448;8.612;2022-09-16T02:46:57;16.70;99.90
1107;DHT22;540;49.448;8.612;2022-09-16T02:49:33;16.60;99.90
1107;DHT22;540;49.448;8.612;2022-09-16T02:52:13;16.70;99.90
1107;DHT22;540;49.448;8.612;2022-09-16T02:54:48;16.50;99.90
1107;DHT22;540;49.448;8.612;2022-09-16T02:57:17;16.80;99.90
1107;DHT22;540;49.448;8.612;2022-09-16T02:59:45;16.80;99.90
1107;DHT22;540;49.448;8.612;2022-09-16T03:02:13;16.50;99.90
1107;DHT22;540;49.448;8.612;2022-09-16T03:04:42;16.70;99.90
1107;DHT22;540;49.448;8.612;2022-09-16T03:07:10;16.50;99.90
1107;DHT22;540;49.448;8.612;2022-09-16T03:09:41;16.80;99.90
1107;DHT22;540;49.448;8.612;2022-09-16T03:12:19;16.80;99.90
1107;DHT22;540;49.448;8.612;2022-09-16T03:15:09;16.80;99.90
1107;DHT22;540;49.448;8.612;2022-09-16T03:18:07;16.70;99.90
1107;DHT22;540;49.448;8.612;2022-09-16T03:20:45;16.50;99.90
1107;DHT22;540;49.448;8.612;2022-09-16T03:23:20;16.40;99.90
1107;DHT22;540;49.448;8.612;2022-09-16T03:25:56;16.70;99.90
1107;DHT22;540;49.448;8.612;2022-09-16T03:28:26;16.40;99.90
1107;DHT22;540;49.448;8.612;2022-09-16T03:31:05;16.70;99.90
1107;DHT22;540;49.448;8.612;2022-09-16T03:33:37;16.60;99.90
1107;DHT22;540;49.448;8.612;2022-09-16T03:36:11;16.50;99.90
1107;DHT22;540;49.448;8.612;2022-09-16T03:38:40;16.60;99.90
1107;DHT22;540;49.448;8.612;2022-09-16T03:41:09;16.50;99.90
1107;DHT22;540;49.448;8.612;2022-09-16T03:43:37;16.50;99.90
1107;DHT22;540;49.448;8.612;2022-09-16T03:46:09;16.50;99.90
1107;DHT22;540;49.448;8.612;2022-09-16T03:48:37;16.80;99.90
1107;DHT22;540;49.448;8.612;2022-09-16T03:51:04;16.90;99.90
1107;DHT22;540;49.448;8.612;2022-09-16T03:53:34;16.70;99.90
1107;DHT22;540;49.448;8.612;2022-09-16T03:56:01;16.70;99.90
1107;DHT22;540;49.448;8.612;2022-09-16T03:58:29;16.60;99.90
1107;DHT22;540;49.448;8.612;2022-09-16T04:00:57;16.70;99.90
1107;DHT22;540;49.448;8.612;2022-09-16T04:03:24;16.70;99.90
1107;DHT22;540;49.448;8.612;2022-09-16T04:05:58;16.60;99.90
1107;DHT22;540;49.448;8.612;2022-09-16T04:08:26;16.50;99.90
1107;DHT22;540;49.448;8.612;2022-09-16T04:10:55;16.20;99.90
1107;DHT22;540;49.448;8.612;2022-09-16T04:13:23;16.30;99.90
1107;DHT22;540;49.448;8.612;2022-09-16T04:15:51;16.40;99.90
1107;DHT22;540;49.448;8.612;2022-09-16T04:18:19;16.40;99.90
1107;DHT22;540;49.448;8.612;2022-09-16T04:20:47;16.50;99.90
1107;DHT22;540;49.448;8.612;2022-09-16T04:23:14;16.40;99.90
1107;DHT22;540;49.448;8.612;2022-09-16T04:25:42;16.60;99.90
1107;DHT22;540;49.448;8.612;2022-09-16T04:28:11;16.40;99.90
1107;DHT22;540;49.448;8.612;2022-09-16T04:30:39;16.80;99.90
1107;DHT22;540;49.448;8.612;2022-09-16T04:33:07;16.50;99.90
1107;DHT22;540;49.448;8.612;2022-09-16T04:35:34;16.40;99.90
1107;DHT22;540;49.448;8.612;2022-09-16T04:38:02;16.40;99.90
1107;DHT22;540;49.448;8.612;2022-09-16T04:40:30;16.50;99.90
1107;DHT22;540;49.448;8.612;2022-09-16T04:42:58;16.50;99.90
1107;DHT22;540;49.448;8.612;2022-09-16T04:45:27;16.60;99.90
1107;DHT22;540;49.448;8.612;2022-09-16T04:47:55;16.70;99.90
1107;DHT22;540;49.448;8.612;2022-09-16T04:50:23;16.50;99.90
1107;DHT22;540;49.448;8.612;2022-09-16T04:52:51;16.60;99.90
1107;DHT22;540;49.448;8.612;2022-09-16T04:55:19;16.60;99.90
1107;DHT22;540;49.448;8.612;2022-09-16T04:57:48;16.40;99.90
1107;DHT22;540;49.448;8.612;2022-09-16T05:00:16;16.30;99.90
1107;DHT22;540;49.448;8.612;2022-09-16T05:02:45;16.50;99.90
1107;DHT22;540;49.448;8.612;2022-09-16T05:05:14;16.30;99.90
1107;DHT22;540;49.448;8.612;2022-09-16T05:07:43;16.20;99.90
1107;DHT22;540;49.448;8.612;2022-09-16T05:10:10;16.50;99.90
1107;DHT22;540;49.448;8.612;2022-09-16T05:12:38;16.40;99.90
1107;DHT22;540;49.448;8.612;2022-09-16T05:15:07;16.70;99.90
1107;DHT22;540;49.448;8.612;2022-09-16T05:17:35;16.30;99.90
1107;DHT22;540;49.448;8.612;2022-09-16T05:20:18;16.60;99.90
1107;DHT22;540;49.448;8.612;2022-09-16T05:22:48;16.60;99.90
1107;DHT22;540;49.448;8.612;2022-09-16T05:25:16;15.90;99.90
1107;DHT22;540;49.448;8.612;2022-09-16T05:27:44;16.60;99.90
1107;DHT22;540;49.448;8.612;2022-09-16T05:30:12;16.60;99.90
1107;DHT22;540;49.448;8.612;2022-09-16T05:32:42;16.40;99.90
1107;DHT22;540;49.448;8.612;2022-09-16T05:35:10;16.60;99.90
1107;DHT22;540;49.448;8.612;2022-09-16T05:37:39;16.30;99.90
1107;DHT22;540;49.448;8.612;2022-09-16T05:40:08;16.10;99.90
1107;DHT22;540;49.448;8.612;2022-09-16T05:42:35;16.50;99.90
1107;DHT22;540;49.448;8.612;2022-09-16T05:45:04;16.50;99.90
1107;DHT22;540;49.448;8.612;2022-09-16T05:47:32;16.40;99.90
1107;DHT22;540;49.448;8.612;2022-09-16T05:50:00;16.10;99.90
1107;DHT22;540;49.448;8.612;2022-09-16T05:52:27;16.40;99.90
1107;DHT22;540;49.448;8.612;2022-09-16T05:54:56;16.40;99.90
1107;DHT22;540;49.448;8.612;2022-09-16T05:57:24;16.30;99.90
1107;DHT22;540;49.448;8.612;2022-09-16T05:59:52;16.40;99.90
1107;DHT22;540;49.448;8.612;2022-09-16T06:02:19;16.60;99.90
1107;DHT22;540;49.448;8.612;2022-09-16T06:04:47;16.50;99.90
1107;DHT22;540;49.448;8.612;2022-09-16T06:07:15;16.70;99.90
1107;DHT22;540;49.448;8.612;2022-09-16T06:09:43;16.40;99.90
1107;DHT22;540;49.448;8.612;2022-09-16T06:12:12;16.50;99.90
1107;DHT22;540;49.448;8.612;2022-09-16T06:14:40;16.50;99.90
1107;DHT22;540;49.448;8.612;2022-09-16T06:17:08;16.50;99.90
1107;DHT22;540;49.448;8.612;2022-09-16T06:19:36;16.30;99.90
1107;DHT22;540;49.448;8.612;2022-09-16T06:22:04;16.60;99.90
1107;DHT22;540;49.448;8.612;2022-09-16T06:24:31;16.40;99.90
1107;DHT22;540;49.448;8.612;2022-09-16T06:26:59;16.80;99.90
1107;DHT22;540;49.448;8.612;2022-09-16T06:29:28;16.40;99.90
1107;DHT22;540;49.448;8.612;2022-09-16T06:31:56;16.80;99.90
1107;DHT22;540;49.448;8.612;2022-09-16T06:34:24;17.00;99.90
1107;DHT22;540;49.448;8.612;2022-09-16T06:36:52;16.70;99.90
1107;DHT22;540;49.448;8.612;2022-09-16T06:39:20;17.10;99.90
1107;DHT22;540;49.448;8.612;2022-09-16T06:41:49;17.40;99.90
1107;DHT22;540;49.448;8.612;2022-09-16T06:44:17;17.20;99.90
1107;DHT22;540;49.448;8.612;2022-09-16T06:46:46;17.20;99.90
1107;DHT22;540;49.448;8.612;2022-09-16T06:49:14;17.20;99.90
1107;DHT22;540;49.448;8.612;2022-09-16T06:51:42;17.50;99.90
1107;DHT22;540;49.448;8.612;2022-09-16T06:54:09;17.90;99.90
1107;DHT22;540;49.448;8.612;2022-09-16T06:56:38;17.80;99.90
1107;DHT22;540;49.448;8.612;2022-09-16T06:59:08;18.00;99.90
1107;DHT22;540;49.448;8.612;2022-09-16T07:01:35;18.00;99.90
1107;DHT22;540;49.448;8.612;2022-09-16T07:04:06;18.30;99.90
1107;DHT22;540;49.448;8.612;2022-09-16T07:06:36;18.20;99.30
1107;DHT22;540;49.448;8.612;2022-09-16T07:09:24;18.10;99.00
1107;DHT22;540;49.448;8.612;2022-09-16T07:11:51;18.90;96.00
1107;DHT22;540;49.448;8.612;2022-09-16T07:14:19;18.90;95.50
1107;DHT22;540;49.448;8.612;2022-09-16T07:16:47;18.70;95.90
1107;DHT22;540;49.448;8.612;2022-09-16T07:19:16;18.40;96.20
1107;DHT22;540;49.448;8.612;2022-09-16T07:21:44;18.50;96.70
1107;DHT22;540;49.448;8.612;2022-09-16T07:24:13;18.40;96.20
1107;DHT22;540;49.448;8.612;2022-09-16T07:26:42;18.10;94.90
1107;DHT22;540;49.448;8.612;2022-09-16T07:29:12;18.30;94.10
1107;DHT22;540;49.448;8.612;2022-09-16T07:31:40;18.10;93.60
1107;DHT22;540;49.448;8.612;2022-09-16T07:34:10;18.20;92.60
1107;DHT22;540;49.448;8.612;2022-09-16T07:36:41;18.30;91.70
1107;DHT22;540;49.448;8.612;2022-09-16T07:39:10;18.40;91.40
1107;DHT22;540;49.448;8.612;2022-09-16T07:41:39;18.20;90.10
1107;DHT22;540;49.448;8.612;2022-09-16T07:44:10;18.40;90.30
1107;DHT22;540;49.448;8.612;2022-09-16T07:46:38;18.70;89.90
1107;DHT22;540;49.448;8.612;2022-09-16T07:49:08;18.30;89.20
1107;DHT22;540;49.448;8.612;2022-09-16T07:51:38;18.30;89.50
1107;DHT22;540;49.448;8.612;2022-09-16T07:54:08;18.50;90.00
1107;DHT22;540;49.448;8.612;2022-09-16T07:56:38;18.60;87.90
1107;DHT22;540;49.448;8.612;2022-09-16T07:59:10;18.50;82.10
1107;DHT22;540;49.448;8.612;2022-09-16T08:01:44;18.50;79.50
1107;DHT22;540;49.448;8.612;2022-09-16T08:04:12;18.40;76.60
1107;DHT22;540;49.448;8.612;2022-09-16T08:06:41;18.70;76.40
1107;DHT22;540;49.448;8.612;2022-09-16T08:09:09;18.90;76.20
1107;DHT22;540;49.448;8.612;2022-09-16T08:11:57;18.40;75.60
1107;DHT22;540;49.448;8.612;2022-09-16T08:14:24;18.50;77.50
1107;DHT22;540;49.448;8.612;2022-09-16T08:16:52;18.50;78.20
1107;DHT22;540;49.448;8.612;2022-09-16T08:19:20;18.30;78.60
1107;DHT22;540;49.448;8.612;2022-09-16T08:21:50;18.30;77.30
1107;DHT22;540;49.448;8.612;2022-09-16T08:24:18;18.20;77.50
1107;DHT22;540;49.448;8.612;2022-09-16T08:26:45;18.20;78.20
1107;DHT22;540;49.448;8.612;2022-09-16T08:29:13;18.20;79.90
1107;DHT22;540;49.448;8.612;2022-09-16T08:31:42;18.20;79.50
1107;DHT22;540;49.448;8.612;2022-09-16T08:34:10;18.00;79.50
1107;DHT22;540;49.448;8.612;2022-09-16T08:36:38;18.30;81.00
1107;DHT22;540;49.448;8.612;2022-09-16T08:39:09;18.40;80.10
1107;DHT22;540;49.448;8.612;2022-09-16T08:41:59;18.40;78.00
1107;DHT22;540;49.448;8.612;2022-09-16T08:44:36;18.50;76.30
1107;DHT22;540;49.448;8.612;2022-09-16T08:47:12;18.30;75.10
1107;DHT22;540;49.448;8.612;2022-09-16T08:49:43;18.80;74.70
1107;DHT22;540;49.448;8.612;2022-09-16T08:52:15;18.50;74.80
1107;DHT22;540;49.448;8.612;2022-09-16T08:54:50;18.30;75.50
1107;DHT22;540;49.448;8.612;2022-09-16T08:57:20;18.60;77.90
1107;DHT22;540;49.448;8.612;2022-09-16T08:59:53;18.40;77.80
1107;DHT22;540;49.448;8.612;2022-09-16T09:02:37;18.10;78.20
1107;DHT22;540;49.448;8.612;2022-09-16T09:05:14;18.30;79.20
1107;DHT22;540;49.448;8.612;2022-09-16T09:07:53;18.30;79.20
1107;DHT22;540;49.448;8.612;2022-09-16T09:10:30;18.30;77.70
1107;DHT22;540;49.448;8.612;2022-09-16T09:13:08;18.10;76.30
1107;DHT22;540;49.448;8.612;2022-09-16T09:15:47;18.20;75.90
1107;DHT22;540;49.448;8.612;2022-09-16T09:18:26;18.30;74.10
1107;DHT22;540;49.448;8.612;2022-09-16T09:21:13;18.30;72.60
1107;DHT22;540;49.448;8.612;2022-09-16T09:24:01;18.60;71.40
1107;DHT22;540;49.448;8.612;2022-09-16T09:26:39;18.70;70.00
1107;DHT22;540;49.448;8.612;2022-09-16T09:29:26;18.70;66.90
1107;DHT22;540;49.448;8.612;2022-09-16T09:32:01;20.00;63.50
1107;DHT22;540;49.448;8.612;2022-09-16T09:34:43;21.60;57.60
1107;DHT22;540;49.448;8.612;2022-09-16T09:37:26;22.90;53.60
1107;DHT22;540;49.448;8.612;2022-09-16T09:40:02;22.90;52.40
1107;DHT22;540;49.448;8.612;2022-09-16T09:42:38;22.90;51.70
1107;DHT22;540;49.448;8.612;2022-09-16T09:45:17;22.70;51.80
1107;DHT22;540;49.448;8.612;2022-09-16T09:47:48;22.20;53.10
1107;DHT22;540;49.448;8.612;2022-09-16T09:50:21;21.80;54.00
1107;DHT22;540;49.448;8.612;2022-09-16T09:52:55;22.00;54.50
1107;DHT22;540;49.448;8.612;2022-09-16T09:55:26;22.40;53.60
1107;DHT22;540;49.448;8.612;2022-09-16T09:58:04;23.00;52.70
1107;DHT22;540;49.448;8.612;2022-09-16T10:00:37;24.40;50.60
1107;DHT22;540;49.448;8.612;2022-09-16T10:03:09;24.50;48.90
1107;DHT22;540;49.448;8.612;2022-09-16T10:05:38;24.20;48.40
1107;DHT22;540;49.448;8.612;2022-09-16T10:08:14;23.10;48.20
1107;DHT22;540;49.448;8.612;2022-09-16T10:10:47;22.70;49.90
1107;DHT22;540;49.448;8.612;2022-09-16T10:13:18;22.40;50.20
1107;DHT22;540;49.448;8.612;2022-09-16T10:15:46;21.80;50.90
1107;DHT22;540;49.448;8.612;2022-09-16T10:18:24;21.40;50.50
1107;DHT22;540;49.448;8.612;2022-09-16T10:21:00;21.10;52.30
1107;DHT22;540;49.448;8.612;2022-09-16T10:23:28;21.30;53.20
1107;DHT22;540;49.448;8.612;2022-09-16T10:26:04;21.50;51.80
1107;DHT22;540;49.448;8.612;2022-09-16T10:28:34;21.90;50.70
1107;DHT22;540;49.448;8.612;2022-09-16T10:31:01;22.30;50.50
1107;DHT22;540;49.448;8.612;2022-09-16T10:33:32;23.20;48.70
1107;DHT22;540;49.448;8.612;2022-09-16T10:36:04;23.70;47.30
1107;DHT22;540;49.448;8.612;2022-09-16T10:38:36;23.80;46.10
1107;DHT22;540;49.448;8.612;2022-09-16T10:41:06;23.80;45.10
1107;DHT22;540;49.448;8.612;2022-09-16T10:43:37;23.80;44.60
1107;DHT22;540;49.448;8.612;2022-09-16T10:46:06;23.70;45.10
1107;DHT22;540;49.448;8.612;2022-09-16T10:48:35;24.10;44.60
1107;DHT22;540;49.448;8.612;2022-09-16T10:51:04;23.40;44.70
1107;DHT22;540;49.448;8.612;2022-09-16T10:53:34;23.40;45.70
1107;DHT22;540;49.448;8.612;2022-09-16T10:56:14;23.40;45.80
1107;DHT22;540;49.448;8.612;2022-09-16T10:58:45;23.70;45.20
1107;DHT22;540;49.448;8.612;2022-09-16T11:01:24;24.00;45.00
1107;DHT22;540;49.448;8.612;2022-09-16T11:04:30;23.90;44.60
1107;DHT22;540;49.448;8.612;2022-09-16T11:07:08;24.90;43.10
1107;DHT22;540;49.448;8.612;2022-09-16T11:09:47;25.20;42.00
1107;DHT22;540;49.448;8.612;2022-09-16T11:12:37;25.10;42.30
1107;DHT22;540;49.448;8.612;2022-09-16T11:15:18;24.70;42.10
1107;DHT22;540;49.448;8.612;2022-09-16T11:17:59;24.40;42.50
1107;DHT22;540;49.448;8.612;2022-09-16T11:21:02;24.50;43.00
1107;DHT22;540;49.448;8.612;2022-09-16T11:23:46;25.40;41.80
1107;DHT22;540;49.448;8.612;2022-09-16T11:26:19;25.60;40.10
1107;DHT22;540;49.448;8.612;2022-09-16T11:29:01;25.20;40.70
1107;DHT22;540;49.448;8.612;2022-09-16T11:31:39;24.60;42.10
1107;DHT22;540;49.448;8.612;2022-09-16T11:34:19;24.30;43.00
1107;DHT22;540;49.448;8.612;2022-09-16T11:36:54;23.70;43.30
1107;DHT22;540;49.448;8.612;2022-09-16T11:39:42;23.50;44.20
1107;DHT22;540;49.448;8.612;2022-09-16T11:42:14;23.60;44.60
1107;DHT22;540;49.448;8.612;2022-09-16T11:44:45;24.10;43.90
1107;DHT22;540;49.448;8.612;2022-09-16T11:47:28;24.20;42.90
1107;DHT22;540;49.448;8.612;2022-09-16T11:50:17;24.00;42.30
1107;DHT22;540;49.448;8.612;2022-09-16T11:52:59;24.20;43.20
1107;DHT22;540;49.448;8.612;2022-09-16T11:55:40;23.80;43.90
1107;DHT22;540;49.448;8.612;2022-09-16T11:58:25;23.70;44.00
1107;DHT22;540;49.448;8.612;2022-09-16T12:00:56;23.70;42.60
1107;DHT22;540;49.448;8.612;2022-09-16T12:03:30;23.40;43.50
1107;DHT22;540;49.448;8.612;2022-09-16T12:06:03;23.20;44.30
1107;DHT22;540;49.448;8.612;2022-09-16T12:08:37;22.90;44.40
1107;DHT22;540;49.448;8.612;2022-09-16T12:11:19;22.80;44.70
1107;DHT22;540;49.448;8.612;2022-09-16T12:13:50;22.90;45.50
1107;DHT22;540;49.448;8.612;2022-09-16T12:16:35;22.60;44.60
1107;DHT22;540;49.448;8.612;2022-09-16T12:19:10;21.90;44.10
1107;DHT22;540;49.448;8.612;2022-09-16T12:21:43;21.80;44.60
1107;DHT22;540;49.448;8.612;2022-09-16T12:24:18;21.60;45.50
1107;DHT22;540;49.448;8.612;2022-09-16T12:26:50;21.40;46.70
1107;DHT22;540;49.448;8.612;2022-09-16T12:29:21;20.70;47.90
1107;DHT22;540;49.448;8.612;2022-09-16T12:31:57;20.80;49.40
1107;DHT22;540;49.448;8.612;2022-09-16T12:34:32;20.40;50.00
1107;DHT22;540;49.448;8.612;2022-09-16T12:37:05;20.40;50.10
1107;DHT22;540;49.448;8.612;2022-09-16T12:39:34;20.30;50.40
1107;DHT22;540;49.448;8.612;2022-09-16T12:45:10;21.00;50.70
1107;DHT22;540;49.448;8.612;2022-09-16T12:51:07;21.70;49.60
1107;DHT22;540;49.448;8.612;2022-09-16T12:53:59;22.20;49.50
1107;DHT22;540;49.448;8.612;2022-09-16T12:56:42;22.40;48.70
1107;DHT22;540;49.448;8.612;2022-09-16T12:59:36;22.40;47.20
1107;DHT22;540;49.448;8.612;2022-09-16T13:02:14;22.60;46.60
1107;DHT22;540;49.448;8.612;2022-09-16T13:04:45;23.00;45.90
1107;DHT22;540;49.448;8.612;2022-09-16T13:07:22;23.30;45.70
1107;DHT22;540;49.448;8.612;2022-09-16T13:10:00;23.30;44.90
1107;DHT22;540;49.448;8.612;2022-09-16T13:12:29;23.10;44.50
1107;DHT22;540;49.448;8.612;2022-09-16T13:15:23;23.10;44.60
1107;DHT22;540;49.448;8.612;2022-09-16T13:17:51;22.90;43.20
1107;DHT22;540;49.448;8.612;2022-09-16T13:20:22;22.70;44.60
1107;DHT22;540;49.448;8.612;2022-09-16T13:23:03;22.80;45.10
1107;DHT22;540;49.448;8.612;2022-09-16T13:25:41;22.70;45.30
1107;DHT22;540;49.448;8.612;2022-09-16T13:28:33;22.60;45.30
1107;DHT22;540;49.448;8.612;2022-09-16T13:31:18;22.30;45.50
1107;DHT22;540;49.448;8.612;2022-09-16T13:33:48;22.10;46.40
1107;DHT22;540;49.448;8.612;2022-09-16T13:36:30;21.80;47.00
1107;DHT22;540;49.448;8.612;2022-09-16T13:39:02;21.50;47.60
1107;DHT22;540;49.448;8.612;2022-09-16T13:41:35;21.40;48.10
1107;DHT22;540;49.448;8.612;2022-09-16T13:44:25;21.40;48.80
1107;DHT22;540;49.448;8.612;2022-09-16T13:46:53;21.30;49.30
1107;DHT22;540;49.448;8.612;2022-09-16T13:49:22;20.90;49.10
1107;DHT22;540;49.448;8.612;2022-09-16T13:51:53;20.90;49.80
1107;DHT22;540;49.448;8.612;2022-09-16T13:54:26;20.60;50.40
1107;DHT22;540;49.448;8.612;2022-09-16T13:57:07;20.70;51.80
1107;DHT22;540;49.448;8.612;2022-09-16T13:59:50;20.60;53.70
1107;DHT22;540;49.448;8.612;2022-09-16T14:02:35;20.40;55.00
1107;DHT22;540;49.448;8.612;2022-09-16T14:05:17;20.30;55.10
1107;DHT22;540;49.448;8.612;2022-09-16T14:07:52;20.10;54.90
1107;DHT22;540;49.448;8.612;2022-09-16T14:10:29;19.80;55.50
1107;DHT22;540;49.448;8.612;2022-09-16T14:13:06;20.10;57.10
1107;DHT22;540;49.448;8.612;2022-09-16T14:15:40;19.90;57.80
1107;DHT22;540;49.448;8.612;2022-09-16T14:18:13;19.50;58.30
1107;DHT22;540;49.448;8.612;2022-09-16T14:20:56;20.00;60.50
1107;DHT22;540;49.448;8.612;2022-09-16T14:23:28;20.00;60.80
1107;DHT22;540;49.448;8.612;2022-09-16T14:26:20;19.80;62.90
1107;DHT22;540;49.448;8.612;2022-09-16T14:28:48;20.00;61.90
1107;DHT22;540;49.448;8.612;2022-09-16T14:31:19;19.70;64.30
1107;DHT22;540;49.448;8.612;2022-09-16T14:33:52;19.70;67.10
1107;DHT22;540;49.448;8.612;2022-09-16T14:36:25;19.60;67.00
1107;DHT22;540;49.448;8.612;2022-09-16T14:38:56;19.90;67.10
1107;DHT22;540;49.448;8.612;2022-09-16T14:41:29;20.10;66.90
1107;DHT22;540;49.448;8.612;2022-09-16T14:44:07;20.30;64.70
1107;DHT22;540;49.448;8.612;2022-09-16T14:46:40;20.10;62.30
1107;DHT22;540;49.448;8.612;2022-09-16T14:49:10;20.00;61.40
1107;DHT22;540;49.448;8.612;2022-09-16T14:51:39;20.00;61.40
1107;DHT22;540;49.448;8.612;2022-09-16T14:54:15;20.30;61.90
1107;DHT22;540;49.448;8.612;2022-09-16T14:56:58;19.80;62.90
1107;DHT22;540;49.448;8.612;2022-09-16T14:59:28;19.50;62.30
1107;DHT22;540;49.448;8.612;2022-09-16T15:01:59;19.50;62.50
1107;DHT22;540;49.448;8.612;2022-09-16T15:04:32;19.40;62.90
1107;DHT22;540;49.448;8.612;2022-09-16T15:07:10;19.20;61.60
1107;DHT22;540;49.448;8.612;2022-09-16T15:09:44;19.30;62.60
1107;DHT22;540;49.448;8.612;2022-09-16T15:12:23;18.90;62.40
1107;DHT22;540;49.448;8.612;2022-09-16T15:14:52;18.70;64.10
1107;DHT22;540;49.448;8.612;2022-09-16T15:17:27;18.70;65.50
1107;DHT22;540;49.448;8.612;2022-09-16T15:19:57;18.60;66.60
1107;DHT22;540;49.448;8.612;2022-09-16T15:22:26;18.70;65.60
1107;DHT22;540;49.448;8.612;2022-09-16T15:24:56;18.10;66.40
1107;DHT22;540;49.448;8.612;2022-09-16T15:27:28;18.10;68.40
1107;DHT22;540;49.448;8.612;2022-09-16T15:29:59;18.10;71.00
1107;DHT22;540;49.448;8.612;2022-09-16T15:32:30;17.60;68.80
1107;DHT22;540;49.448;8.612;2022-09-16T15:35:18;18.00;68.30
1107;DHT22;540;49.448;8.612;2022-09-16T15:37:48;17.40;68.40
1107;DHT22;540;49.448;8.612;2022-09-16T15:40:21;17.60;70.20
1107;DHT22;540;49.448;8.612;2022-09-16T15:43:24;17.80;70.30
1107;DHT22;540;49.448;8.612;2022-09-16T15:45:57;17.90;70.50
1107;DHT22;540;49.448;8.612;2022-09-16T15:48:30;18.20;70.60
1107;DHT22;540;49.448;8.612;2022-09-16T15:51:00;18.20;70.30
1107;DHT22;540;49.448;8.612;2022-09-16T15:53:41;18.40;71.20
1107;DHT22;540;49.448;8.612;2022-09-16T15:56:20;18.50;71.20
1107;DHT22;540;49.448;8.612;2022-09-16T15:58:53;18.20;71.10
1107;DHT22;540;49.448;8.612;2022-09-16T16:01:36;18.40;71.30
1107;DHT22;540;49.448;8.612;2022-09-16T16:04:07;18.30;71.40
1107;DHT22;540;49.448;8.612;2022-09-16T16:06:47;18.40;73.30
1107;DHT22;540;49.448;8.612;2022-09-16T16:09:35;18.30;72.20
1107;DHT22;540;49.448;8.612;2022-09-16T16:12:05;18.30;67.80
1107;DHT22;540;49.448;8.612;2022-09-16T16:14:36;18.20;66.60
1107;DHT22;540;49.448;8.612;2022-09-16T16:17:06;18.20;66.50
1107;DHT22;540;49.448;8.612;2022-09-16T16:19:40;18.10;67.30
1107;DHT22;540;49.448;8.612;2022-09-16T16:22:08;17.90;67.80
1107;DHT22;540;49.448;8.612;2022-09-16T16:24:36;17.80;68.30
1107;DHT22;540;49.448;8.612;2022-09-16T16:27:04;18.10;69.10
1107;DHT22;540;49.448;8.612;2022-09-16T16:29:32;17.80;69.00
1107;DHT22;540;49.448;8.612;2022-09-16T16:32:04;17.50;68.30
1107;DHT22;540;49.448;8.612;2022-09-16T16:34:33;17.80;69.70
1107;DHT22;540;49.448;8.612;2022-09-16T16:37:02;18.00;70.90
1107;DHT22;540;49.448;8.612;2022-09-16T16:39:30;17.60;71.80
1107;DHT22;540;49.448;8.612;2022-09-16T16:41:58;17.60;73.50
1107;DHT22;540;49.448;8.612;2022-09-16T16:44:26;17.80;75.70
1107;DHT22;540;49.448;8.612;2022-09-16T16:46:54;17.30;77.10
1107;DHT22;540;49.448;8.612;2022-09-16T16:49:25;17.60;78.10
1107;DHT22;540;49.448;8.612;2022-09-16T16:51:53;17.50;79.60
1107;DHT22;540;49.448;8.612;2022-09-16T16:54:23;17.80;80.20
1107;DHT22;540;49.448;8.612;2022-09-16T16:56:52;17.40;81.00
1107;DHT22;540;49.448;8.612;2022-09-16T16:59:21;17.20;84.20
1107;DHT22;540;49.448;8.612;2022-09-16T17:01:50;17.20;86.40
1107;DHT22;540;49.448;8.612;2022-09-16T17:04:18;17.20;87.00